Shelton, CT (06484)

10:36 PM EDT on September 03, 2015 (GMT -0400)
APRSWXNET | | Change Station
CLOSE
Current Station
Personal Weather Station
Location: Shelton, CT
Elevation: 449 ft
Nearby Weather Stations

Elev 449 ft 41.30 °N, 73.15 °W | Updated 22 minutes ago

Clear
Clear
75 °F
Feels Like 76 °F
N
0
Wind Variable Wind from WSW
Gusts 0.0 mph

Today
High -- | Low -- °F
--% Chance of Precip.
Yesterday
High -- | Low -- °F
Precip. -- in
6:20 AM 7:22 PM
Waning Gibbous, 64% visible
Pressure 29.89 in
Visibility 8.0 miles
Clouds Clear
Heat Index 76 °F
Dew Point 68 °F
Humidity 78%
Rainfall in
Snow Depth Not available.
UV 0 out of 12
Pollen 7.80 out of 12
Air Quality Not available.
Flu Activity Not available.
METAR KBDR 040152Z 21004KT 8SM CLR 27/20 A2989 RMK AO2 SLP121 T02670200 $
Pressure 29.89 in
Visibility 8.0 miles
Clouds Clear
Heat Index 76 °F
Dew Point 68 °F
Humidity 78%
Rainfall in
Snow Depth Not available.
UV 0 out of 12
Pollen 7.80 out of 12
Air Quality Not available.
Flu Activity Not available.
METAR KBDR 040152Z 21004KT 8SM CLR 27/20 A2989 RMK AO2 SLP121 T02670200 $

10-Day Weather Forecast

×

Almanac

Astronomy

Sep. 03, 2015 Rise Set
Actual Time
Civil Twilight
Nautical Twilight
Astronomical Twilight
Moon
Length of Visible Light
Length of Day
Tomorrow will be .
, % of the Moon is Illuminated

Today's Extremes

State Highs State Lows

Community

WunderPhotos

Upload Photos

1,852,106 photos uploaded!

WunderBlogs® & News

Nearby

Air Quality

  Air Quality AQ Index Pollutant
Not available.

Snow Depth

Station Depth Elevation

Earthquake Activity

City Distance Mag. Time & Date
Minimum magnitude displayed is 2.5.

Coastal Water Temperatures

Place Temperature

Stations

Nearby Weather Stations

Station Location Temp. Windchill Dew Point Humidity Wind Precip. Elev Updated Type